Time;durP1;ratioP1;P1;durP2;ratioP2;P2;SDS_P1;SDS_P2;PMS_P1;PMS_P2;Temp;Humidity;BMP_temperature;BMP_pressure;BME280_temperature;BME280_humidity;BME280_pressure;Samples;Min_cycle;Max_cycle;Signal;HPM_P1;HPM_P2
2023/12/23 00:01:42;;;;;;;0.93;0.40;;;;;;;20.77;29.96;99518.59;4460733;28;20074;-50
2023/12/23 00:03:53;;;;;;;1.05;0.30;;;;;;;20.76;30.08;99528.41;4459720;28;20054;-48
2023/12/23 00:06:04;;;;;;;0.70;0.30;;;;;;;20.75;29.72;99538.25;4460037;28;20061;-48
2023/12/23 00:08:14;;;;;;;0.40;0.40;;;;;;;20.76;29.57;99545.59;4459836;28;20035;-49
2023/12/23 00:10:25;;;;;;;0.75;0.38;;;;;;;20.76;29.63;99548.47;4460297;28;20620;-48
2023/12/23 00:12:35;;;;;;;1.15;0.38;;;;;;;20.75;29.33;99550.53;4459093;28;20043;-48
2023/12/23 00:14:45;;;;;;;0.80;0.40;;;;;;;20.74;29.52;99548.03;4459855;28;20284;-48
2023/12/23 00:16:56;;;;;;;0.70;0.38;;;;;;;20.75;29.31;99566.91;4458276;28;20043;-48
2023/12/23 00:19:06;;;;;;;0.95;0.40;;;;;;;20.76;29.01;99568.56;4458994;28;25852;-48
2023/12/23 00:21:17;;;;;;;0.40;0.32;;;;;;;20.74;29.21;99576.72;4459569;28;20456;-48
2023/12/23 00:23:27;;;;;;;0.30;0.20;;;;;;;20.74;29.29;99577.56;4459837;28;20031;-48
2023/12/23 00:25:37;;;;;;;1.60;0.40;;;;;;;20.75;29.12;99584.13;4461417;28;20070;-48
2023/12/23 00:27:48;;;;;;;0.65;0.40;;;;;;;20.74;29.29;99579.59;4459001;28;20034;-48
2023/12/23 00:29:58;;;;;;;0.63;0.40;;;;;;;20.73;29.36;99581.66;4467917;28;20102;-48
2023/12/23 00:32:09;;;;;;;0.75;0.30;;;;;;;20.73;29.24;99573.03;4461164;28;20384;-49
2023/12/23 00:34:19;;;;;;;0.73;0.40;;;;;;;20.72;29.13;99561.97;4459230;28;20043;-48
2023/12/23 00:36:29;;;;;;;0.88;0.40;;;;;;;20.73;28.90;99577.94;4458966;28;20035;-48
2023/12/23 00:38:40;;;;;;;0.40;0.30;;;;;;;20.73;29.37;99580.81;4467353;28;20500;-48
2023/12/23 00:40:50;;;;;;;1.83;0.50;;;;;;;20.72;29.06;99582.03;4458654;28;20051;-48
2023/12/23 00:43:01;;;;;;;0.70;0.30;;;;;;;20.71;28.66;99581.22;4477527;28;20045;-48
2023/12/23 00:45:11;;;;;;;0.80;0.30;;;;;;;20.71;28.88;99591.84;4470205;28;20042;-49
2023/12/23 00:47:21;;;;;;;0.77;0.40;;;;;;;20.72;28.87;99579.19;4470449;28;20039;-49
2023/12/23 00:49:32;;;;;;;0.65;0.32;;;;;;;20.72;28.92;99576.31;4462505;28;22545;-48
2023/12/23 00:51:42;;;;;;;0.88;0.30;;;;;;;20.72;28.64;99579.19;4463664;28;20070;-48
2023/12/23 00:53:53;;;;;;;0.73;0.20;;;;;;;20.72;28.88;99576.31;4468774;28;20424;-48
2023/12/23 00:56:03;;;;;;;1.48;0.40;;;;;;;20.73;28.71;99583.69;4462975;28;20499;-49
2023/12/23 00:58:14;;;;;;;0.80;0.40;;;;;;;20.72;29.20;99579.19;4468199;28;20039;-48
2023/12/23 01:00:24;;;;;;;0.82;0.30;;;;;;;20.72;29.15;99579.19;4469675;28;21641;-48
2023/12/23 01:02:35;;;;;;;1.05;0.43;;;;;;;20.71;29.19;99580.38;4465269;28;20034;-49
2023/12/23 01:04:45;;;;;;;0.73;0.40;;;;;;;20.71;29.53;99575.47;4463684;28;20955;-48
2023/12/23 01:06:55;;;;;;;0.50;0.30;;;;;;;20.72;29.82;99579.19;4460851;28;20035;-48
2023/12/23 01:09:06;;;;;;;1.50;0.63;;;;;;;20.71;30.20;99588.97;4453783;28;20043;-48
2023/12/23 01:11:16;;;;;;;0.98;0.50;;;;;;;20.71;30.20;99604.16;4463063;28;20488;-48
2023/12/23 01:13:27;;;;;;;1.02;0.52;;;;;;;20.72;30.51;99602.13;4462342;28;20512;-48
2023/12/23 01:15:37;;;;;;;1.05;0.40;;;;;;;20.72;30.71;99596.38;4469881;28;20372;-48
2023/12/23 01:17:48;;;;;;;0.88;0.30;;;;;;;20.72;30.69;99596.38;4461040;28;20051;-48
2023/12/23 01:19:58;;;;;;;0.77;0.50;;;;;;;20.72;30.78;99591.44;4464112;28;20037;-48
2023/12/23 01:22:08;;;;;;;1.10;0.50;;;;;;;20.71;30.88;99600.44;4448692;28;20035;-48
2023/12/23 01:24:19;;;;;;;0.80;0.40;;;;;;;20.72;30.87;99596.38;4444486;28;20146;-48
2023/12/23 01:26:30;;;;;;;1.15;0.47;;;;;;;20.72;31.07;99579.19;4461382;28;20118;-49
2023/12/23 01:28:40;;;;;;;0.70;0.40;;;;;;;20.71;31.07;99586.94;4464413;28;20109;-48
2023/12/23 01:30:51;;;;;;;0.63;0.32;;;;;;;20.71;30.91;99600.44;4467899;28;20066;-48
2023/12/23 01:33:01;;;;;;;0.90;0.43;;;;;;;20.70;30.98;99593.91;4463482;28;20472;-48
2023/12/23 01:35:12;;;;;;;0.85;0.30;;;;;;;20.71;30.68;99600.44;4461197;28;20151;-48
2023/12/23 01:37:22;;;;;;;0.77;0.43;;;;;;;20.71;30.60;99595.53;4460338;28;20446;-48
2023/12/23 01:39:33;;;;;;;1.23;0.40;;;;;;;20.70;30.93;99591.03;4469741;28;20508;-48
2023/12/23 01:41:43;;;;;;;0.75;0.40;;;;;;;20.70;30.76;99599.63;4462807;28;20368;-48
2023/12/23 01:43:53;;;;;;;0.95;0.45;;;;;;;20.71;30.99;99607.00;4469953;28;20089;-50
2023/12/23 01:46:04;;;;;;;0.88;0.40;;;;;;;20.70;30.93;99604.53;4462340;28;20042;-49
2023/12/23 01:48:15;;;;;;;0.77;0.40;;;;;;;20.69;31.06;99615.19;4461679;28;20035;-48
2023/12/23 01:50:27;;;;;;;2.15;0.50;;;;;;;20.70;30.90;99613.97;4462439;28;20043;-48
2023/12/23 01:52:38;;;;;;;0.73;0.40;;;;;;;20.69;30.84;99611.50;4458740;28;20042;-48
2023/12/23 01:54:50;;;;;;;0.93;0.40;;;;;;;20.70;30.65;99616.00;4459423;28;20086;-48
2023/12/23 01:57:01;;;;;;;1.10;0.40;;;;;;;20.70;30.76;99613.16;4460656;28;20059;-48
2023/12/23 01:59:11;;;;;;;1.05;0.45;;;;;;;20.70;31.03;99610.28;4476869;28;20165;-48
2023/12/23 02:01:22;;;;;;;0.88;0.40;;;;;;;20.69;30.98;99615.19;4460550;28;20043;-49
2023/12/23 02:03:32;;;;;;;2.03;0.50;;;;;;;20.70;31.07;99610.28;4468086;28;20471;-48
2023/12/23 02:05:45;;;;;;;0.50;0.43;;;;;;;20.70;31.23;99610.28;4462934;28;20031;-48
2023/12/23 02:07:55;;;;;;;0.73;0.30;;;;;;;20.68;30.92;99610.66;4460408;28;20029;-49
2023/12/23 02:10:06;;;;;;;1.25;0.50;;;;;;;20.69;31.02;99600.84;4476199;28;20077;-48
2023/12/23 02:12:39;;;;;;;0.95;0.40;;;;;;;20.69;31.25;99602.91;4460682;28;20055;-48
2023/12/23 02:15:05;;;;;;;0.90;0.43;;;;;;;20.68;31.13;99590.59;4460536;28;20125;-48
2023/12/23 02:17:15;;;;;;;0.98;0.35;;;;;;;20.69;31.18;99602.91;4460813;28;20859;-49
2023/12/23 02:19:26;;;;;;;1.58;0.50;;;;;;;20.68;30.91;99589.75;4459644;28;20043;-48
2023/12/23 02:21:36;;;;;;;0.63;0.30;;;;;;;20.69;30.97;99588.56;4463679;28;20470;-48
2023/12/23 02:23:47;;;;;;;1.00;0.50;;;;;;;20.69;31.10;99591.44;4463898;28;20369;-49
2023/12/23 02:26:02;;;;;;;1.65;0.40;;;;;;;20.68;30.95;99595.50;4474837;28;20035;-48
2023/12/23 02:28:14;;;;;;;0.68;0.38;;;;;;;20.69;31.22;99591.44;4462933;28;20135;-48
2023/12/23 02:30:26;;;;;;;0.73;0.43;;;;;;;20.68;31.35;99589.75;4459544;28;20039;-48
2023/12/23 02:32:38;;;;;;;0.70;0.22;;;;;;;20.68;31.29;99589.75;4468786;28;20034;-48
2023/12/23 02:34:49;;;;;;;0.73;0.30;;;;;;;20.67;31.10;99580.34;4466342;28;20038;-48
2023/12/23 02:37:00;;;;;;;1.13;0.50;;;;;;;20.68;31.19;99576.25;4460073;28;20047;-49
2023/12/23 02:39:10;;;;;;;0.95;0.40;;;;;;;20.68;31.24;99573.38;4467361;28;20432;-48
2023/12/23 02:41:20;;;;;;;1.02;0.40;;;;;;;20.67;30.89;99571.75;4468115;28;20440;-50
2023/12/23 02:43:31;;;;;;;1.10;0.38;;;;;;;20.67;30.88;99559.44;4460334;28;20067;-48
2023/12/23 02:45:41;;;;;;;1.20;0.40;;;;;;;20.67;30.95;99559.44;4459845;28;21132;-48
2023/12/23 02:47:53;;;;;;;0.57;0.30;;;;;;;20.68;31.01;99563.97;4468274;28;20110;-48
2023/12/23 02:50:04;;;;;;;0.85;0.40;;;;;;;20.67;30.87;99556.59;4469276;28;20031;-48
2023/12/23 02:52:14;;;;;;;1.38;0.43;;;;;;;20.67;30.81;99565.19;4459854;28;20039;-48
2023/12/23 02:54:27;;;;;;;0.77;0.40;;;;;;;20.66;30.95;99564.34;4459682;28;20042;-48
2023/12/23 02:56:37;;;;;;;0.95;0.40;;;;;;;20.67;30.58;99559.44;4458320;28;20035;-49
2023/12/23 02:58:48;;;;;;;0.93;0.50;;;;;;;20.67;30.86;99550.84;4461957;28;20035;-48
2023/12/23 03:00:58;;;;;;;0.90;0.32;;;;;;;20.66;30.49;99546.34;4469141;28;20090;-48
2023/12/23 03:03:09;;;;;;;1.85;0.50;;;;;;;20.67;30.30;99543.09;4460886;28;20627;-47
2023/12/23 03:05:19;;;;;;;0.52;0.40;;;;;;;20.67;30.87;99537.34;4459038;28;20055;-50
2023/12/23 03:07:29;;;;;;;0.77;0.40;;;;;;;20.67;31.00;99533.66;4460413;28;20039;-48
2023/12/23 03:09:40;;;;;;;0.88;0.40;;;;;;;20.67;30.85;99530.78;4460762;28;20050;-48
2023/12/23 03:11:50;;;;;;;0.73;0.20;;;;;;;20.66;30.96;99537.75;4459844;28;20074;-48
2023/12/23 03:14:01;;;;;;;0.35;0.30;;;;;;;20.67;30.82;99539.38;4459929;28;20102;-49
2023/12/23 03:16:16;;;;;;;0.90;0.50;;;;;;;20.67;31.12;99531.63;4460730;28;20505;-48
2023/12/23 03:18:27;;;;;;;0.70;0.37;;;;;;;20.66;30.77;99529.13;4457213;28;20118;-49
2023/12/23 03:20:38;;;;;;;1.27;0.45;;;;;;;20.65;30.58;99528.31;4459308;28;20555;-49
2023/12/23 03:22:49;;;;;;;0.95;0.40;;;;;;;20.66;30.69;99540.59;4461913;28;20046;-47
2023/12/23 03:25:01;;;;;;;0.98;0.30;;;;;;;20.65;30.34;99539.78;4458881;28;20043;-48
2023/12/23 03:27:11;;;;;;;1.20;0.30;;;;;;;20.67;30.66;99545.13;4467643;28;20078;-48
2023/12/23 03:29:22;;;;;;;1.10;0.40;;;;;;;20.66;30.35;99554.94;4459138;28;20043;-48
2023/12/23 03:31:33;;;;;;;0.50;0.30;;;;;;;20.66;30.89;99546.34;4458992;28;20472;-47
2023/12/23 03:33:43;;;;;;;0.93;0.40;;;;;;;20.65;30.85;99534.03;4460701;28;20476;-49
2023/12/23 03:35:57;;;;;;;0.60;0.35;;;;;;;20.66;31.57;99534.88;4460210;28;20062;-49
2023/12/23 03:38:07;;;;;;;0.63;0.20;;;;;;;20.66;31.51;99529.13;4460809;28;20073;-51
2023/12/23 03:40:18;;;;;;;1.35;0.38;;;;;;;20.66;31.38;99532.00;4462511;28;20121;-49
2023/12/23 03:42:28;;;;;;;0.43;0.30;;;;;;;20.65;31.54;99530.34;4457140;28;20054;-49
2023/12/23 03:44:38;;;;;;;0.52;0.30;;;;;;;20.65;32.12;99527.47;4459175;28;24186;-48
2023/12/23 03:46:49;;;;;;;0.60;0.30;;;;;;;20.65;31.99;99518.88;4469807;28;20444;-48
2023/12/23 03:48:59;;;;;;;0.98;0.30;;;;;;;20.65;31.79;99524.59;4458951;28;20400;-48
2023/12/23 03:51:10;;;;;;;1.20;0.30;;;;;;;20.65;31.99;99521.75;4460830;28;20126;-49
2023/12/23 03:53:20;;;;;;;0.60;0.40;;;;;;;20.65;32.01;99511.09;4462014;28;20034;-48
2023/12/23 03:55:32;;;;;;;0.47;0.30;;;;;;;20.65;32.01;99513.13;4463124;28;20051;-48
2023/12/23 03:57:44;;;;;;;0.40;0.20;;;;;;;20.66;31.91;99506.19;4459875;28;20050;-48
2023/12/23 03:59:54;;;;;;;0.70;0.30;;;;;;;20.65;31.96;99496.78;4460157;28;20074;-48
2023/12/23 04:02:06;;;;;;;0.38;0.22;;;;;;;20.64;32.54;99500.84;4467932;28;20031;-49
2023/12/23 04:04:16;;;;;;;0.45;0.30;;;;;;;20.66;32.22;99503.34;4456503;28;20023;-49
2023/12/23 04:06:27;;;;;;;0.40;0.20;;;;;;;20.65;32.31;99493.91;4461162;28;20046;-48
2023/12/23 04:08:39;;;;;;;1.02;0.40;;;;;;;20.66;32.15;99480.41;4458913;28;20043;-48
2023/12/23 04:10:49;;;;;;;0.60;0.35;;;;;;;20.65;32.51;99488.16;4468174;28;21677;-48
2023/12/23 04:13:00;;;;;;;1.05;0.40;;;;;;;20.65;32.48;99479.56;4474492;28;20030;-48
2023/12/23 04:15:11;;;;;;;0.75;0.25;;;;;;;20.66;32.50;99483.25;4459099;28;20037;-48
2023/12/23 04:17:21;;;;;;;0.28;0.20;;;;;;;20.65;32.68;99473.00;4468139;28;20038;-48
2023/12/23 04:19:32;;;;;;;0.80;0.30;;;;;;;20.65;32.55;99470.97;4462140;28;20928;-48
2023/12/23 04:21:42;;;;;;;0.60;0.28;;;;;;;20.66;32.94;99461.13;4470606;28;20043;-49
2023/12/23 04:23:53;;;;;;;0.60;0.30;;;;;;;20.65;32.71;99459.50;4464635;28;20467;-48
2023/12/23 04:26:04;;;;;;;0.40;0.28;;;;;;;20.66;32.62;99466.06;4463704;28;20035;-48
2023/12/23 04:28:15;;;;;;;0.40;0.40;;;;;;;20.66;33.08;99466.06;4461923;28;20035;-48
2023/12/23 04:30:26;;;;;;;0.47;0.30;;;;;;;20.66;32.93;99448.84;4470314;28;20038;-48
2023/12/23 04:32:36;;;;;;;0.25;0.20;;;;;;;20.65;33.08;99442.28;4470332;28;20027;-49
2023/12/23 04:34:47;;;;;;;0.80;0.30;;;;;;;20.65;32.90;99430.00;4460960;28;20040;-48
2023/12/23 04:36:58;;;;;;;0.50;0.30;;;;;;;20.65;33.14;99427.13;4470442;28;20081;-48
2023/12/23 04:39:08;;;;;;;0.93;0.32;;;;;;;20.64;33.49;99426.28;4461103;28;20055;-48
2023/12/23 04:41:19;;;;;;;1.20;0.38;;;;;;;20.64;33.50;99416.88;4463929;28;20035;-48
2023/12/23 04:43:32;;;;;;;0.98;0.57;;;;;;;20.63;33.48;99413.19;4463244;28;20019;-48
2023/12/23 04:45:43;;;;;;;1.05;0.50;;;;;;;20.65;33.41;99401.31;4463233;28;20076;-48
2023/12/23 04:47:53;;;;;;;0.82;0.30;;;;;;;20.63;33.71;99403.75;4463191;28;20512;-49
2023/12/23 04:50:05;;;;;;;0.90;0.50;;;;;;;20.64;33.88;99400.47;4467642;28;20046;-48
2023/12/23 04:52:15;;;;;;;1.05;0.43;;;;;;;20.62;33.82;99391.47;4461720;28;20035;-48
2023/12/23 04:54:26;;;;;;;1.15;0.40;;;;;;;20.63;33.79;99386.53;4467970;28;20496;-49
2023/12/23 04:56:36;;;;;;;0.55;0.40;;;;;;;20.63;34.05;99384.50;4462169;28;20130;-49
2023/12/23 04:58:47;;;;;;;0.80;0.60;;;;;;;20.62;34.15;99384.91;4470356;28;20125;-49
2023/12/23 05:00:57;;;;;;;2.35;1.08;;;;;;;20.62;34.23;99368.53;4466979;28;20516;-48
2023/12/23 05:03:07;;;;;;;3.45;1.75;;;;;;;20.63;34.25;99373.03;4462665;28;20039;-49
2023/12/23 05:05:18;;;;;;;3.38;1.90;;;;;;;20.62;34.43;99357.06;4460187;28;20066;-50
2023/12/23 05:07:28;;;;;;;3.40;1.30;;;;;;;20.62;34.39;99353.38;4462529;28;20027;-48
2023/12/23 05:09:39;;;;;;;2.40;1.20;;;;;;;20.62;34.67;99347.66;4476601;28;20046;-50
2023/12/23 05:11:49;;;;;;;1.83;1.08;;;;;;;20.61;34.42;99338.22;4470940;28;20054;-48
2023/12/23 05:13:59;;;;;;;0.95;0.57;;;;;;;20.62;34.46;99339.03;4462017;28;20039;-49
2023/12/23 05:16:10;;;;;;;1.00;0.55;;;;;;;20.62;34.43;99334.13;4462345;28;21920;-49
2023/12/23 05:18:20;;;;;;;1.45;0.80;;;;;;;20.62;34.44;99330.44;4462032;28;20046;-48
2023/12/23 05:20:32;;;;;;;1.20;0.60;;;;;;;20.62;34.53;99334.13;4460969;28;20102;-48
2023/12/23 05:22:43;;;;;;;1.00;0.47;;;;;;;20.62;34.67;99321.84;4463279;28;20039;-48
2023/12/23 05:24:53;;;;;;;0.77;0.40;;;;;;;20.62;34.66;99316.09;4460663;28;20093;-48
2023/12/23 05:27:07;;;;;;;0.88;0.40;;;;;;;20.61;34.47;99309.53;4467835;28;20122;-49
2023/12/23 05:29:18;;;;;;;1.10;0.50;;;;;;;20.61;34.47;99312.41;4475475;28;20047;-49
2023/12/23 05:31:28;;;;;;;0.65;0.35;;;;;;;20.61;34.58;99295.22;4469766;28;20040;-48
2023/12/23 05:33:39;;;;;;;1.38;0.50;;;;;;;20.61;34.82;99297.28;4461937;28;20039;-48
2023/12/23 05:35:49;;;;;;;0.50;0.40;;;;;;;20.61;34.61;99292.34;4460790;28;20148;-48
2023/12/23 05:38:01;;;;;;;1.20;0.63;;;;;;;20.61;35.11;99286.59;4460530;28;20023;-48
2023/12/23 05:40:11;;;;;;;1.55;0.80;;;;;;;20.62;34.86;99294.00;4462035;28;20039;-48
2023/12/23 05:42:24;;;;;;;0.98;0.60;;;;;;;20.62;34.89;99279.66;4461433;28;20019;-48
2023/12/23 05:44:34;;;;;;;0.50;0.40;;;;;;;20.62;34.93;99282.53;4461921;28;20042;-48
2023/12/23 05:46:44;;;;;;;0.60;0.50;;;;;;;20.62;34.92;99275.97;4461117;28;20039;-48
2023/12/23 05:48:55;;;;;;;0.65;0.50;;;;;;;20.62;35.08;99275.97;4460240;28;20047;-49
2023/12/23 05:51:08;;;;;;;0.73;0.50;;;;;;;20.62;35.24;99275.97;4461383;28;20035;-48
2023/12/23 05:53:18;;;;;;;0.57;0.40;;;;;;;20.62;35.53;99261.63;4460821;28;20947;-48
2023/12/23 05:55:29;;;;;;;0.60;0.40;;;;;;;20.61;35.71;99260.81;4462012;28;20028;-48
2023/12/23 05:57:39;;;;;;;0.63;0.50;;;;;;;20.61;35.79;99248.53;4461126;28;20122;-48
2023/12/23 05:59:50;;;;;;;0.65;0.55;;;;;;;20.61;36.13;99243.59;4460876;28;20035;-48
2023/12/23 06:02:00;;;;;;;0.77;0.47;;;;;;;20.61;36.25;99251.41;4461626;28;20086;-48
2023/12/23 06:04:11;;;;;;;0.60;0.50;;;;;;;20.60;36.39;99244.00;4461452;28;20027;-48
2023/12/23 06:06:21;;;;;;;0.50;0.50;;;;;;;20.61;36.82;99239.94;4461524;28;21220;-48
2023/12/23 06:08:31;;;;;;;0.50;0.40;;;;;;;20.61;36.85;99228.47;4462123;28;20492;-50
2023/12/23 06:10:42;;;;;;;0.52;0.40;;;;;;;20.61;37.15;99239.94;4462241;28;20030;-48
2023/12/23 06:12:52;;;;;;;0.75;0.50;;;;;;;20.61;37.32;99237.06;4460410;28;20114;-49
2023/12/23 06:15:03;;;;;;;0.90;0.50;;;;;;;20.62;37.68;99230.09;4461971;28;20046;-48
2023/12/23 06:17:13;;;;;;;0.47;0.45;;;;;;;20.63;37.82;99226.00;4460260;28;20023;-49
2023/12/23 06:19:24;;;;;;;0.82;0.50;;;;;;;20.62;37.69;99224.38;4459508;28;20042;-48
2023/12/23 06:21:34;;;;;;;0.50;0.50;;;;;;;20.62;37.94;99218.63;4460452;28;20035;-48
2023/12/23 06:23:45;;;;;;;0.50;0.50;;;;;;;20.62;38.00;99218.63;4459965;28;20034;-48
2023/12/23 06:25:55;;;;;;;0.57;0.50;;;;;;;20.62;38.21;99210.03;4460772;28;20121;-49
2023/12/23 06:28:06;;;;;;;1.00;0.60;;;;;;;20.61;38.41;99211.28;4461108;28;20492;-48
2023/12/23 06:30:16;;;;;;;1.08;0.50;;;;;;;20.62;38.26;99195.69;4461141;28;20995;-48
2023/12/23 06:32:26;;;;;;;0.63;0.50;;;;;;;20.61;38.57;99194.88;4460887;28;20050;-48
2023/12/23 06:34:37;;;;;;;0.93;0.60;;;;;;;20.61;38.72;99194.06;4461228;28;20114;-49
2023/12/23 06:36:47;;;;;;;1.27;0.60;;;;;;;20.61;38.83;99188.34;4461457;28;20039;-48
2023/12/23 06:38:58;;;;;;;0.47;0.40;;;;;;;20.62;38.48;99184.22;4460357;28;20047;-49
2023/12/23 06:41:10;;;;;;;1.23;0.50;;;;;;;20.60;38.34;99184.63;4460182;28;20027;-48
2023/12/23 06:43:20;;;;;;;0.82;0.57;;;;;;;20.61;38.96;99177.66;4460685;28;20078;-48
2023/12/23 06:45:31;;;;;;;0.50;0.50;;;;;;;20.60;38.97;99167.44;4460534;28;20485;-48
2023/12/23 06:47:41;;;;;;;1.13;0.65;;;;;;;20.62;38.83;99161.31;4459257;28;24591;-48
2023/12/23 06:49:52;;;;;;;0.57;0.57;;;;;;;20.61;38.83;99153.94;4460803;28;20047;-48
2023/12/23 06:52:02;;;;;;;0.88;0.50;;;;;;;20.60;39.22;99158.00;4461087;28;20114;-50
2023/12/23 06:54:13;;;;;;;0.70;0.60;;;;;;;20.61;38.81;99156.81;4458641;28;20883;-48
2023/12/23 06:56:24;;;;;;;0.55;0.50;;;;;;;20.60;38.73;99153.09;4461115;28;20392;-49
2023/12/23 06:58:34;;;;;;;0.65;0.60;;;;;;;20.61;38.73;99145.34;4474908;28;20066;-49
2023/12/23 07:00:45;;;;;;;1.33;0.60;;;;;;;20.60;38.83;99149.41;4468267;28;20035;-50
2023/12/23 07:02:55;;;;;;;0.75;0.55;;;;;;;20.61;38.80;99149.00;4461606;28;20034;-53
2023/12/23 07:05:06;;;;;;;0.70;0.50;;;;;;;20.61;38.89;99149.00;4460658;28;20058;-48
2023/12/23 07:07:17;;;;;;;1.33;0.60;;;;;;;20.60;38.96;99141.63;4460846;28;20447;-49
2023/12/23 07:09:28;;;;;;;1.23;0.52;;;;;;;20.60;39.01;99147.38;4460397;28;20035;-48
2023/12/23 07:11:38;;;;;;;0.80;0.60;;;;;;;20.60;38.63;99150.25;4459940;28;20035;-48
2023/12/23 07:13:50;;;;;;;1.25;0.57;;;;;;;20.62;38.87;99144.09;4461474;28;20488;-48
2023/12/23 07:16:01;;;;;;;0.82;0.60;;;;;;;20.62;39.17;99149.84;4460617;28;20042;-48
2023/12/23 07:18:12;;;;;;;1.25;0.60;;;;;;;20.61;38.93;99151.88;4460940;28;20050;-48
2023/12/23 07:20:22;;;;;;;1.27;0.60;;;;;;;20.62;38.95;99155.56;4459800;28;20028;-48
2023/12/23 07:22:32;;;;;;;1.00;0.70;;;;;;;20.63;39.00;99157.19;4460899;28;20034;-48
2023/12/23 07:24:43;;;;;;;1.17;0.52;;;;;;;20.62;39.05;99150.66;4460410;28;20066;-48
2023/12/23 07:26:53;;;;;;;0.73;0.50;;;;;;;20.62;38.86;99162.13;4461579;28;20054;-49
2023/12/23 07:29:04;;;;;;;0.98;0.80;;;;;;;20.62;38.85;99155.56;4460580;28;22084;-49
2023/12/23 07:31:14;;;;;;;0.93;0.60;;;;;;;20.61;39.00;99154.72;4459855;28;20396;-49
2023/12/23 07:33:25;;;;;;;0.80;0.52;;;;;;;20.62;39.28;99155.56;4450154;28;20043;-51
2023/12/23 07:35:35;;;;;;;0.80;0.60;;;;;;;20.62;39.22;99150.66;4460752;28;20035;-48
2023/12/23 07:37:45;;;;;;;0.82;0.60;;;;;;;20.63;39.41;99160.06;4463029;28;20094;-48
2023/12/23 07:39:56;;;;;;;0.65;0.50;;;;;;;20.62;39.06;99159.25;4461643;28;20035;-48
2023/12/23 07:42:07;;;;;;;0.98;0.50;;;;;;;20.64;38.97;99167.47;4461369;28;20043;-48
2023/12/23 07:44:17;;;;;;;0.65;0.50;;;;;;;20.62;39.07;99156.41;4459811;28;20039;-49
2023/12/23 07:46:27;;;;;;;1.45;0.65;;;;;;;20.62;39.07;99161.31;4462279;28;20167;-48
2023/12/23 07:48:38;;;;;;;1.13;0.70;;;;;;;20.63;39.11;99162.94;4459160;28;20034;-52
2023/12/23 07:50:48;;;;;;;0.63;0.52;;;;;;;20.62;39.35;99167.03;4461020;28;20035;-49
2023/12/23 07:52:59;;;;;;;1.27;0.70;;;;;;;20.63;39.36;99162.94;4463428;28;20316;-49
2023/12/23 07:55:09;;;;;;;1.42;0.70;;;;;;;20.63;39.23;99168.66;4463862;28;20068;-50
2023/12/23 07:57:19;;;;;;;0.63;0.60;;;;;;;20.62;39.32;99173.59;4471299;28;20090;-49
2023/12/23 07:59:30;;;;;;;1.08;0.60;;;;;;;20.63;39.35;99160.06;4461873;28;20459;-49
2023/12/23 08:01:44;;;;;;;1.08;0.63;;;;;;;20.63;39.47;99160.06;4462972;28;20045;-49
2023/12/23 08:03:58;;;;;;;1.05;0.50;;;;;;;20.62;39.38;99167.88;4462879;28;20680;-48
2023/12/23 08:06:08;;;;;;;1.20;0.70;;;;;;;20.64;39.22;99161.72;4462608;28;20035;-48
2023/12/23 08:08:18;;;;;;;0.98;0.52;;;;;;;20.65;39.37;99151.88;4462113;28;20424;-48
2023/12/23 08:10:29;;;;;;;0.88;0.68;;;;;;;20.66;39.51;99162.97;4463750;28;21543;-48
2023/12/23 08:12:39;;;;;;;0.50;0.50;;;;;;;20.64;39.34;99153.13;4463349;28;20046;-49
2023/12/23 08:14:49;;;;;;;1.50;0.50;;;;;;;20.66;39.40;99162.97;4462292;28;24688;-49
2023/12/23 08:17:00;;;;;;;1.40;0.60;;;;;;;20.65;39.60;99160.50;4463171;28;20042;-49
2023/12/23 08:19:12;;;;;;;0.55;0.50;;;;;;;20.67;39.13;99158.06;4462635;28;20031;-50
2023/12/23 08:21:22;;;;;;;0.82;0.50;;;;;;;20.67;39.40;99163.78;4472453;28;20606;-47
2023/12/23 08:23:33;;;;;;;0.82;0.55;;;;;;;20.67;39.51;99169.53;4463224;28;20146;-48
2023/12/23 08:25:44;;;;;;;0.68;0.55;;;;;;;20.66;39.36;99165.81;4463827;28;20086;-51
2023/12/23 08:27:54;;;;;;;1.50;0.50;;;;;;;20.66;39.18;99174.41;4463311;28;20114;-48
2023/12/23 08:30:08;;;;;;;1.27;0.40;;;;;;;20.67;39.61;99172.38;4463173;28;20082;-50
2023/12/23 08:32:19;;;;;;;1.20;0.60;;;;;;;20.68;39.61;99179.75;4463178;28;20039;-49
2023/12/23 08:34:29;;;;;;;0.90;0.50;;;;;;;20.68;39.27;99182.63;4462511;28;20027;-51
2023/12/23 08:36:40;;;;;;;0.65;0.40;;;;;;;20.68;39.35;99185.50;4464846;28;20481;-51
2023/12/23 08:38:52;;;;;;;0.50;0.47;;;;;;;20.67;39.71;99187.56;4462684;28;20130;-47
2023/12/23 08:41:02;;;;;;;1.08;0.57;;;;;;;20.67;39.43;99189.59;4462911;28;20027;-63
2023/12/23 08:43:13;;;;;;;0.88;0.50;;;;;;;20.69;39.71;99184.28;4464802;28;20039;-63
2023/12/23 08:45:23;;;;;;;0.93;0.57;;;;;;;20.69;39.35;99181.41;4462993;28;20043;-64
2023/12/23 08:47:33;;;;;;;0.50;0.40;;;;;;;20.70;39.84;99191.66;4464019;28;20126;-64
2023/12/23 08:49:44;;;;;;;0.55;0.43;;;;;;;20.72;39.71;99189.22;4462803;28;20043;-63
2023/12/23 08:51:54;;;;;;;0.50;0.40;;;;;;;20.72;39.74;99183.47;4462005;28;20043;-49
2023/12/23 08:54:05;;;;;;;0.55;0.43;;;;;;;20.75;39.59;99188.41;4461679;28;20073;-47
2023/12/23 08:56:15;;;;;;;0.77;0.50;;;;;;;20.75;39.67;99188.41;4462301;28;20497;-48
2023/12/23 08:58:25;;;;;;;1.23;0.63;;;;;;;20.76;39.68;99190.03;4462175;28;20062;-48
2023/12/23 09:00:37;;;;;;;0.47;0.40;;;;;;;20.76;39.20;99195.78;4462943;28;20047;-48
2023/12/23 09:02:47;;;;;;;1.02;0.50;;;;;;;20.78;39.41;99193.34;4462906;28;20039;-47
2023/12/23 09:04:57;;;;;;;0.68;0.43;;;;;;;20.77;39.42;99203.16;4464056;28;20460;-48
2023/12/23 09:07:08;;;;;;;0.70;0.40;;;;;;;20.75;39.61;99194.97;4462355;28;20432;-47
2023/12/23 09:09:18;;;;;;;0.70;0.50;;;;;;;20.75;39.62;99205.59;4464588;28;20551;-51
2023/12/23 09:11:29;;;;;;;0.35;0.35;;;;;;;20.74;39.81;99201.06;4470847;28;20031;-49
2023/12/23 09:13:39;;;;;;;0.85;0.60;;;;;;;20.75;39.54;99211.34;4462773;28;20101;-47
2023/12/23 09:15:50;;;;;;;1.00;0.52;;;;;;;20.73;39.68;99202.31;4462489;28;20046;-51
2023/12/23 09:18:00;;;;;;;1.52;0.50;;;;;;;20.73;39.80;99205.19;4462232;28;20038;-47
2023/12/23 09:20:11;;;;;;;0.57;0.40;;;;;;;20.73;39.52;99208.03;4461640;28;20076;-47
2023/12/23 09:22:21;;;;;;;0.75;0.40;;;;;;;20.73;39.72;99213.78;4461377;28;20046;-52
2023/12/23 09:24:32;;;;;;;0.52;0.40;;;;;;;20.72;39.83;99206.41;4461675;28;20038;-52
2023/12/23 09:26:43;;;;;;;0.57;0.40;;;;;;;20.74;39.76;99213.38;4461726;28;20134;-51
2023/12/23 09:28:53;;;;;;;0.60;0.60;;;;;;;20.75;39.52;99217.06;4462036;28;20730;-48
2023/12/23 09:31:03;;;;;;;1.83;0.93;;;;;;;20.76;39.60;99224.44;4462599;28;20072;-48
2023/12/23 09:33:15;;;;;;;1.65;0.90;;;;;;;20.76;39.90;99218.72;4462913;28;20031;-51
2023/12/23 09:35:25;;;;;;;1.35;0.60;;;;;;;20.77;40.05;99228.97;4462903;28;20039;-49
2023/12/23 09:37:36;;;;;;;1.30;0.47;;;;;;;20.78;39.50;99222.00;4461443;28;20034;-50
2023/12/23 09:39:46;;;;;;;0.85;0.50;;;;;;;20.80;39.99;99219.56;4462359;28;20034;-47
2023/12/23 09:41:59;;;;;;;0.88;0.40;;;;;;;20.78;39.92;99216.28;4462856;28;20039;-49
2023/12/23 09:44:10;;;;;;;0.98;0.55;;;;;;;20.81;39.81;99232.66;4462193;28;20039;-51
2023/12/23 09:46:20;;;;;;;0.73;0.40;;;;;;;20.78;39.65;99222.00;4461010;28;20038;-49
2023/12/23 09:48:32;;;;;;;1.17;0.55;;;;;;;20.78;39.94;99233.47;4461223;28;20067;-49
2023/12/23 09:50:42;;;;;;;1.23;0.45;;;;;;;20.77;39.89;99232.66;4462547;28;20039;-53
2023/12/23 09:52:55;;;;;;;0.70;0.40;;;;;;;20.78;39.59;99239.22;4463273;28;20031;-50
2023/12/23 09:55:09;;;;;;;0.55;0.50;;;;;;;20.77;40.01;99244.13;4461342;28;20039;-53
2023/12/23 09:57:20;;;;;;;1.25;0.50;;;;;;;20.78;39.97;99245.78;4462169;28;20049;-50
2023/12/23 09:59:31;;;;;;;1.23;0.52;;;;;;;20.78;39.66;99239.22;4462409;28;20105;-49
2023/12/23 10:01:41;;;;;;;0.93;0.55;;;;;;;20.81;39.68;99249.88;4461423;28;20094;-53
2023/12/23 10:03:53;;;;;;;1.05;0.50;;;;;;;20.80;39.77;99242.50;4460683;28;20039;-53
2023/12/23 10:06:03;;;;;;;0.73;0.50;;;;;;;20.82;39.75;99259.31;4461987;28;20042;-49
2023/12/23 10:08:14;;;;;;;0.82;0.40;;;;;;;20.81;39.69;99249.88;4463615;28;20511;-51
2023/12/23 10:10:31;;;;;;;1.77;0.60;;;;;;;20.82;39.91;99245.78;4462652;28;20489;-49
2023/12/23 10:12:41;;;;;;;;;;;;;;;20.84;39.78;99254.81;4462636;28;20164;-51
2023/12/23 10:14:51;;;;;;;0.82;0.60;;;;;;;20.83;39.94;99242.50;4461640;28;19929;-53
2023/12/23 10:17:02;;;;;;;1.00;0.50;;;;;;;20.83;39.99;99248.25;4461533;28;20031;-50